San Simeon, California
Current Conditions -  °F | °C
As of 1:53 PM on Sunday 25 Jan 2015 (Local Time) from KPRB Reporting Station
Clear Clear  
Wind Chill: 71°   Ceiling: Unl
Heat Index: 71°   Visibility: 10mi
Dew Point: 41°   Wind: 0mph
Humidity: 34%   Direction: NA
Pressure: 30.01"   Gusts: NA
Location:  35.65°N, 121.19°W
Report Text: KPRB 252153Z AUTO 00000KT 10SM CLR 22/05 A3001 RMK AO2 SLP161 T02170050 TSNO
Loading
Personal Weather Stations






























Interactive Weather Map New forecast layout! Learn more

10-Day Weather Forecast

Advertisements
Track Severe Weather on mobile